sensor_id;sensor_type;location;lat;lon;timestamp;temperature;humidity
8539;DHT22;4307;53.868;11.680;2023-05-10T00:01:20;13.90;74.10
8539;DHT22;4307;53.868;11.680;2023-05-10T00:03:46;13.80;74.00
8539;DHT22;4307;53.868;11.680;2023-05-10T00:06:13;13.80;74.10
8539;DHT22;4307;53.868;11.680;2023-05-10T00:08:39;13.80;74.20
8539;DHT22;4307;53.868;11.680;2023-05-10T00:11:07;13.70;74.30
8539;DHT22;4307;53.868;11.680;2023-05-10T00:13:34;13.70;74.40
8539;DHT22;4307;53.868;11.680;2023-05-10T00:16:01;13.70;74.50
8539;DHT22;4307;53.868;11.680;2023-05-10T00:18:27;13.70;74.60
8539;DHT22;4307;53.868;11.680;2023-05-10T00:20:54;13.70;74.70
8539;DHT22;4307;53.868;11.680;2023-05-10T00:23:21;13.60;74.80
8539;DHT22;4307;53.868;11.680;2023-05-10T00:25:47;13.60;74.80
8539;DHT22;4307;53.868;11.680;2023-05-10T00:28:15;13.60;75.00
8539;DHT22;4307;53.868;11.680;2023-05-10T00:30:42;13.60;75.10
8539;DHT22;4307;53.868;11.680;2023-05-10T00:33:08;13.60;75.30
8539;DHT22;4307;53.868;11.680;2023-05-10T00:35:36;13.60;75.40
8539;DHT22;4307;53.868;11.680;2023-05-10T00:38:03;13.60;75.50
8539;DHT22;4307;53.868;11.680;2023-05-10T00:40:30;13.50;75.70
8539;DHT22;4307;53.868;11.680;2023-05-10T00:42:57;13.50;75.70
8539;DHT22;4307;53.868;11.680;2023-05-10T00:45:26;13.50;75.90
8539;DHT22;4307;53.868;11.680;2023-05-10T00:47:52;13.40;75.90
8539;DHT22;4307;53.868;11.680;2023-05-10T00:50:20;13.40;76.10
8539;DHT22;4307;53.868;11.680;2023-05-10T00:52:47;13.30;76.20
8539;DHT22;4307;53.868;11.680;2023-05-10T00:55:14;13.40;76.50
8539;DHT22;4307;53.868;11.680;2023-05-10T00:57:41;13.30;76.50
8539;DHT22;4307;53.868;11.680;2023-05-10T01:00:09;13.30;76.70
8539;DHT22;4307;53.868;11.680;2023-05-10T01:02:38;13.30;76.90
8539;DHT22;4307;53.868;11.680;2023-05-10T01:05:05;13.20;77.00
8539;DHT22;4307;53.868;11.680;2023-05-10T01:07:32;13.20;77.10
8539;DHT22;4307;53.868;11.680;2023-05-10T01:09:59;13.20;77.30
8539;DHT22;4307;53.868;11.680;2023-05-10T01:12:26;13.10;77.40
8539;DHT22;4307;53.868;11.680;2023-05-10T01:14:54;13.10;77.70
8539;DHT22;4307;53.868;11.680;2023-05-10T01:17:21;13.10;77.80
8539;DHT22;4307;53.868;11.680;2023-05-10T01:19:49;13.00;77.80
8539;DHT22;4307;53.868;11.680;2023-05-10T01:22:37;13.00;78.00
8539;DHT22;4307;53.868;11.680;2023-05-10T01:25:28;13.00;78.20
8539;DHT22;4307;53.868;11.680;2023-05-10T01:28:12;12.90;78.20
8539;DHT22;4307;53.868;11.680;2023-05-10T01:31:08;12.90;78.40
8539;DHT22;4307;53.868;11.680;2023-05-10T01:33:46;12.80;78.40
8539;DHT22;4307;53.868;11.680;2023-05-10T01:36:23;12.80;78.60
8539;DHT22;4307;53.868;11.680;2023-05-10T01:38:57;12.80;78.70
8539;DHT22;4307;53.868;11.680;2023-05-10T01:41:28;12.70;78.90
8539;DHT22;4307;53.868;11.680;2023-05-10T01:44:03;12.60;79.20
8539;DHT22;4307;53.868;11.680;2023-05-10T01:46:35;12.60;79.30
8539;DHT22;4307;53.868;11.680;2023-05-10T01:49:07;12.50;79.40
8539;DHT22;4307;53.868;11.680;2023-05-10T01:51:39;12.50;79.70
8539;DHT22;4307;53.868;11.680;2023-05-10T01:54:08;12.50;79.80
8539;DHT22;4307;53.868;11.680;2023-05-10T01:56:37;12.50;80.10
8539;DHT22;4307;53.868;11.680;2023-05-10T01:59:09;12.40;80.10
8539;DHT22;4307;53.868;11.680;2023-05-10T02:01:38;12.40;80.30
8539;DHT22;4307;53.868;11.680;2023-05-10T02:04:07;12.40;80.40
8539;DHT22;4307;53.868;11.680;2023-05-10T02:06:36;12.30;80.60
8539;DHT22;4307;53.868;11.680;2023-05-10T02:09:05;12.30;81.30
8539;DHT22;4307;53.868;11.680;2023-05-10T02:11:32;12.30;80.70
8539;DHT22;4307;53.868;11.680;2023-05-10T02:14:00;12.30;80.80
8539;DHT22;4307;53.868;11.680;2023-05-10T02:16:27;12.30;81.10
8539;DHT22;4307;53.868;11.680;2023-05-10T02:18:57;12.20;81.30
8539;DHT22;4307;53.868;11.680;2023-05-10T02:21:28;12.20;81.40
8539;DHT22;4307;53.868;11.680;2023-05-10T02:23:57;12.20;81.60
8539;DHT22;4307;53.868;11.680;2023-05-10T02:26:24;12.10;81.70
8539;DHT22;4307;53.868;11.680;2023-05-10T02:28:53;12.10;81.80
8539;DHT22;4307;53.868;11.680;2023-05-10T02:31:20;12.00;82.10
8539;DHT22;4307;53.868;11.680;2023-05-10T02:33:48;12.00;82.20
8539;DHT22;4307;53.868;11.680;2023-05-10T02:36:15;12.00;82.50
8539;DHT22;4307;53.868;11.680;2023-05-10T02:38:44;11.90;82.50
8539;DHT22;4307;53.868;11.680;2023-05-10T02:41:12;11.90;82.80
8539;DHT22;4307;53.868;11.680;2023-05-10T02:43:40;11.90;83.10
8539;DHT22;4307;53.868;11.680;2023-05-10T02:46:07;11.80;83.20
8539;DHT22;4307;53.868;11.680;2023-05-10T02:48:34;11.80;83.30
8539;DHT22;4307;53.868;11.680;2023-05-10T02:51:04;11.80;83.50
8539;DHT22;4307;53.868;11.680;2023-05-10T02:53:34;11.70;83.50
8539;DHT22;4307;53.868;11.680;2023-05-10T02:56:05;11.70;83.90
8539;DHT22;4307;53.868;11.680;2023-05-10T02:58:34;11.70;84.10
8539;DHT22;4307;53.868;11.680;2023-05-10T03:01:01;11.60;84.30
8539;DHT22;4307;53.868;11.680;2023-05-10T03:03:27;11.60;84.50
8539;DHT22;4307;53.868;11.680;2023-05-10T03:05:54;11.60;84.50
8539;DHT22;4307;53.868;11.680;2023-05-10T03:08:22;11.60;84.80
8539;DHT22;4307;53.868;11.680;2023-05-10T03:13:46;11.50;85.10
8539;DHT22;4307;53.868;11.680;2023-05-10T03:16:16;11.50;85.40
8539;DHT22;4307;53.868;11.680;2023-05-10T03:18:54;11.50;85.50
8539;DHT22;4307;53.868;11.680;2023-05-10T03:21:22;11.50;85.80
8539;DHT22;4307;53.868;11.680;2023-05-10T03:23:58;11.40;86.80
8539;DHT22;4307;53.868;11.680;2023-05-10T03:26:26;11.40;86.40
8539;DHT22;4307;53.868;11.680;2023-05-10T03:28:55;11.40;86.40
8539;DHT22;4307;53.868;11.680;2023-05-10T03:31:24;11.40;86.50
8539;DHT22;4307;53.868;11.680;2023-05-10T03:33:51;11.30;86.50
8539;DHT22;4307;53.868;11.680;2023-05-10T03:36:18;11.30;86.70
8539;DHT22;4307;53.868;11.680;2023-05-10T03:38:45;11.30;86.90
8539;DHT22;4307;53.868;11.680;2023-05-10T03:41:12;11.30;87.00
8539;DHT22;4307;53.868;11.680;2023-05-10T03:43:39;11.30;87.10
8539;DHT22;4307;53.868;11.680;2023-05-10T03:46:07;11.30;87.30
8539;DHT22;4307;53.868;11.680;2023-05-10T03:48:34;11.30;87.40
8539;DHT22;4307;53.868;11.680;2023-05-10T03:51:01;11.30;87.50
8539;DHT22;4307;53.868;11.680;2023-05-10T03:53:27;11.30;87.70
8539;DHT22;4307;53.868;11.680;2023-05-10T03:55:54;11.40;88.00
8539;DHT22;4307;53.868;11.680;2023-05-10T03:58:21;11.50;88.40
8539;DHT22;4307;53.868;11.680;2023-05-10T04:00:47;11.70;88.50
8539;DHT22;4307;53.868;11.680;2023-05-10T04:03:15;11.80;88.40
8539;DHT22;4307;53.868;11.680;2023-05-10T04:05:42;12.10;88.40
8539;DHT22;4307;53.868;11.680;2023-05-10T04:08:09;12.40;88.20
8539;DHT22;4307;53.868;11.680;2023-05-10T04:10:35;12.70;87.80
8539;DHT22;4307;53.868;11.680;2023-05-10T04:13:02;12.90;87.60
8539;DHT22;4307;53.868;11.680;2023-05-10T04:15:29;13.00;87.20
8539;DHT22;4307;53.868;11.680;2023-05-10T04:17:55;13.10;86.50
8539;DHT22;4307;53.868;11.680;2023-05-10T04:20:23;13.00;86.20
8539;DHT22;4307;53.868;11.680;2023-05-10T04:22:50;13.00;86.20
8539;DHT22;4307;53.868;11.680;2023-05-10T04:25:17;13.00;86.40
8539;DHT22;4307;53.868;11.680;2023-05-10T04:27:43;13.10;86.40
8539;DHT22;4307;53.868;11.680;2023-05-10T04:30:10;13.20;86.30
8539;DHT22;4307;53.868;11.680;2023-05-10T04:32:37;13.30;86.00
8539;DHT22;4307;53.868;11.680;2023-05-10T04:35:04;13.40;85.90
8539;DHT22;4307;53.868;11.680;2023-05-10T04:37:33;13.60;86.00
8539;DHT22;4307;53.868;11.680;2023-05-10T04:39:59;13.70;85.80
8539;DHT22;4307;53.868;11.680;2023-05-10T04:42:26;13.90;85.50
8539;DHT22;4307;53.868;11.680;2023-05-10T04:44:53;14.10;85.30
8539;DHT22;4307;53.868;11.680;2023-05-10T04:47:20;14.30;85.30
8539;DHT22;4307;53.868;11.680;2023-05-10T04:49:46;14.60;85.00
8539;DHT22;4307;53.868;11.680;2023-05-10T04:52:13;14.90;84.60
8539;DHT22;4307;53.868;11.680;2023-05-10T04:54:42;15.10;83.90
8539;DHT22;4307;53.868;11.680;2023-05-10T04:57:09;15.20;83.50
8539;DHT22;4307;53.868;11.680;2023-05-10T04:59:36;15.40;83.10
8539;DHT22;4307;53.868;11.680;2023-05-10T05:02:03;15.60;82.50
8539;DHT22;4307;53.868;11.680;2023-05-10T05:04:30;15.70;82.30
8539;DHT22;4307;53.868;11.680;2023-05-10T05:06:57;16.00;82.20
8539;DHT22;4307;53.868;11.680;2023-05-10T05:09:23;16.20;81.70
8539;DHT22;4307;53.868;11.680;2023-05-10T05:11:51;16.30;81.10
8539;DHT22;4307;53.868;11.680;2023-05-10T05:14:18;16.50;80.80
8539;DHT22;4307;53.868;11.680;2023-05-10T05:16:46;16.60;80.40
8539;DHT22;4307;53.868;11.680;2023-05-10T05:19:13;16.70;79.90
8539;DHT22;4307;53.868;11.680;2023-05-10T05:21:40;16.70;79.30
8539;DHT22;4307;53.868;11.680;2023-05-10T05:24:06;16.70;79.00
8539;DHT22;4307;53.868;11.680;2023-05-10T05:26:33;16.80;79.00
8539;DHT22;4307;53.868;11.680;2023-05-10T05:29:02;16.90;78.80
8539;DHT22;4307;53.868;11.680;2023-05-10T05:31:28;16.90;78.30
8539;DHT22;4307;53.868;11.680;2023-05-10T05:33:55;16.80;78.10
8539;DHT22;4307;53.868;11.680;2023-05-10T05:36:22;16.60;78.30
8539;DHT22;4307;53.868;11.680;2023-05-10T05:38:49;16.60;78.20
8539;DHT22;4307;53.868;11.680;2023-05-10T05:41:15;16.60;78.20
8539;DHT22;4307;53.868;11.680;2023-05-10T05:43:42;16.80;78.00
8539;DHT22;4307;53.868;11.680;2023-05-10T05:46:10;16.80;77.70
8539;DHT22;4307;53.868;11.680;2023-05-10T05:48:37;16.70;77.10
8539;DHT22;4307;53.868;11.680;2023-05-10T05:51:03;16.70;77.60
8539;DHT22;4307;53.868;11.680;2023-05-10T05:53:30;16.70;77.40
8539;DHT22;4307;53.868;11.680;2023-05-10T05:55:58;16.80;77.10
8539;DHT22;4307;53.868;11.680;2023-05-10T05:58:25;16.80;77.20
8539;DHT22;4307;53.868;11.680;2023-05-10T06:00:52;16.80;77.40
8539;DHT22;4307;53.868;11.680;2023-05-10T06:03:21;16.90;77.10
8539;DHT22;4307;53.868;11.680;2023-05-10T06:05:47;17.00;77.10
8539;DHT22;4307;53.868;11.680;2023-05-10T06:08:15;17.10;77.10
8539;DHT22;4307;53.868;11.680;2023-05-10T06:10:42;17.40;77.10
8539;DHT22;4307;53.868;11.680;2023-05-10T06:13:09;17.50;76.50
8539;DHT22;4307;53.868;11.680;2023-05-10T06:15:36;17.70;76.20
8539;DHT22;4307;53.868;11.680;2023-05-10T06:18:03;17.70;75.80
8539;DHT22;4307;53.868;11.680;2023-05-10T06:20:32;17.80;75.80
8539;DHT22;4307;53.868;11.680;2023-05-10T06:22:59;17.90;75.50
8539;DHT22;4307;53.868;11.680;2023-05-10T06:25:25;18.00;75.50
8539;DHT22;4307;53.868;11.680;2023-05-10T06:27:52;18.00;75.50
8539;DHT22;4307;53.868;11.680;2023-05-10T06:30:23;17.90;75.50
8539;DHT22;4307;53.868;11.680;2023-05-10T06:32:52;18.10;75.80
8539;DHT22;4307;53.868;11.680;2023-05-10T06:35:20;18.20;74.90
8539;DHT22;4307;53.868;11.680;2023-05-10T06:37:48;18.30;74.10
8539;DHT22;4307;53.868;11.680;2023-05-10T06:40:15;18.40;73.90
8539;DHT22;4307;53.868;11.680;2023-05-10T06:42:41;18.30;73.80
8539;DHT22;4307;53.868;11.680;2023-05-10T06:45:10;18.30;73.20
8539;DHT22;4307;53.868;11.680;2023-05-10T06:47:37;18.20;73.30
8539;DHT22;4307;53.868;11.680;2023-05-10T06:50:04;18.20;72.80
8539;DHT22;4307;53.868;11.680;2023-05-10T06:52:31;18.10;72.60
8539;DHT22;4307;53.868;11.680;2023-05-10T06:54:59;18.00;72.80
8539;DHT22;4307;53.868;11.680;2023-05-10T06:57:27;18.00;73.00
8539;DHT22;4307;53.868;11.680;2023-05-10T06:59:53;18.10;72.70
8539;DHT22;4307;53.868;11.680;2023-05-10T07:02:21;18.00;72.80
8539;DHT22;4307;53.868;11.680;2023-05-10T07:04:48;18.10;72.70
8539;DHT22;4307;53.868;11.680;2023-05-10T07:07:15;18.10;72.50
8539;DHT22;4307;53.868;11.680;2023-05-10T07:09:42;18.10;72.20
8539;DHT22;4307;53.868;11.680;2023-05-10T07:12:10;18.10;72.40
8539;DHT22;4307;53.868;11.680;2023-05-10T07:14:36;18.20;72.50
8539;DHT22;4307;53.868;11.680;2023-05-10T07:17:03;18.30;72.40
8539;DHT22;4307;53.868;11.680;2023-05-10T07:19:30;18.30;72.10
8539;DHT22;4307;53.868;11.680;2023-05-10T07:21:58;18.20;72.20
8539;DHT22;4307;53.868;11.680;2023-05-10T07:24:24;18.30;72.80
8539;DHT22;4307;53.868;11.680;2023-05-10T07:26:51;18.40;73.70
8539;DHT22;4307;53.868;11.680;2023-05-10T07:29:19;18.70;73.00
8539;DHT22;4307;53.868;11.680;2023-05-10T07:31:45;18.80;72.60
8539;DHT22;4307;53.868;11.680;2023-05-10T07:34:12;18.80;72.10
8539;DHT22;4307;53.868;11.680;2023-05-10T07:36:39;18.90;72.30
8539;DHT22;4307;53.868;11.680;2023-05-10T07:39:05;19.00;72.20
8539;DHT22;4307;53.868;11.680;2023-05-10T07:41:32;19.00;72.50
8539;DHT22;4307;53.868;11.680;2023-05-10T07:43:59;19.10;72.50
8539;DHT22;4307;53.868;11.680;2023-05-10T07:46:27;19.20;71.90
8539;DHT22;4307;53.868;11.680;2023-05-10T07:48:54;19.20;72.00
8539;DHT22;4307;53.868;11.680;2023-05-10T07:51:21;19.10;71.90
8539;DHT22;4307;53.868;11.680;2023-05-10T07:53:47;19.10;72.30
8539;DHT22;4307;53.868;11.680;2023-05-10T07:56:22;19.20;72.40
8539;DHT22;4307;53.868;11.680;2023-05-10T07:58:50;19.40;72.30
8539;DHT22;4307;53.868;11.680;2023-05-10T08:01:17;19.60;72.40
8539;DHT22;4307;53.868;11.680;2023-05-10T08:03:45;19.70;72.30
8539;DHT22;4307;53.868;11.680;2023-05-10T08:06:11;19.90;72.30
8539;DHT22;4307;53.868;11.680;2023-05-10T08:08:38;20.10;71.90
8539;DHT22;4307;53.868;11.680;2023-05-10T08:11:05;20.10;71.50
8539;DHT22;4307;53.868;11.680;2023-05-10T08:13:31;20.10;71.30
8539;DHT22;4307;53.868;11.680;2023-05-10T08:15:58;20.10;71.40
8539;DHT22;4307;53.868;11.680;2023-05-10T08:18:25;20.20;71.00
8539;DHT22;4307;53.868;11.680;2023-05-10T08:20:53;20.20;70.60
8539;DHT22;4307;53.868;11.680;2023-05-10T08:23:19;20.10;70.50
8539;DHT22;4307;53.868;11.680;2023-05-10T08:25:46;20.20;70.90
8539;DHT22;4307;53.868;11.680;2023-05-10T08:28:12;20.20;69.80
8539;DHT22;4307;53.868;11.680;2023-05-10T08:30:39;20.10;70.50
8539;DHT22;4307;53.868;11.680;2023-05-10T08:33:06;20.20;70.00
8539;DHT22;4307;53.868;11.680;2023-05-10T08:35:32;20.20;69.70
8539;DHT22;4307;53.868;11.680;2023-05-10T08:38:01;20.20;69.30
8539;DHT22;4307;53.868;11.680;2023-05-10T08:40:28;20.20;68.90
8539;DHT22;4307;53.868;11.680;2023-05-10T08:42:59;20.00;68.90
8539;DHT22;4307;53.868;11.680;2023-05-10T08:45:32;20.00;69.70
8539;DHT22;4307;53.868;11.680;2023-05-10T08:48:01;20.00;70.00
8539;DHT22;4307;53.868;11.680;2023-05-10T08:50:28;20.10;70.10
8539;DHT22;4307;53.868;11.680;2023-05-10T08:52:59;20.20;70.60
8539;DHT22;4307;53.868;11.680;2023-05-10T08:55:27;20.50;71.00
8539;DHT22;4307;53.868;11.680;2023-05-10T08:57:54;20.60;70.10
8539;DHT22;4307;53.868;11.680;2023-05-10T09:00:22;20.60;70.00
8539;DHT22;4307;53.868;11.680;2023-05-10T09:02:49;20.70;70.80
8539;DHT22;4307;53.868;11.680;2023-05-10T09:05:17;20.70;70.10
8539;DHT22;4307;53.868;11.680;2023-05-10T09:07:44;20.70;69.70
8539;DHT22;4307;53.868;11.680;2023-05-10T09:10:11;20.70;69.30
8539;DHT22;4307;53.868;11.680;2023-05-10T09:12:39;20.50;69.30
8539;DHT22;4307;53.868;11.680;2023-05-10T09:15:07;20.50;69.70
8539;DHT22;4307;53.868;11.680;2023-05-10T09:17:36;20.40;70.00
8539;DHT22;4307;53.868;11.680;2023-05-10T09:20:04;20.50;70.30
8539;DHT22;4307;53.868;11.680;2023-05-10T09:22:31;20.50;69.60
8539;DHT22;4307;53.868;11.680;2023-05-10T09:25:09;20.50;69.90
8539;DHT22;4307;53.868;11.680;2023-05-10T09:27:37;20.50;69.80
8539;DHT22;4307;53.868;11.680;2023-05-10T09:30:07;20.60;70.40
8539;DHT22;4307;53.868;11.680;2023-05-10T09:32:37;20.70;70.00
8539;DHT22;4307;53.868;11.680;2023-05-10T09:35:11;20.90;70.10
8539;DHT22;4307;53.868;11.680;2023-05-10T09:37:39;21.00;69.70
8539;DHT22;4307;53.868;11.680;2023-05-10T09:40:10;21.00;69.10
8539;DHT22;4307;53.868;11.680;2023-05-10T09:42:38;20.90;69.40
8539;DHT22;4307;53.868;11.680;2023-05-10T09:45:07;20.80;69.60
8539;DHT22;4307;53.868;11.680;2023-05-10T09:47:34;20.60;69.20
8539;DHT22;4307;53.868;11.680;2023-05-10T09:50:02;20.50;69.60
8539;DHT22;4307;53.868;11.680;2023-05-10T09:52:30;20.40;70.00
8539;DHT22;4307;53.868;11.680;2023-05-10T09:54:57;20.40;70.30
8539;DHT22;4307;53.868;11.680;2023-05-10T09:57:24;20.50;70.80
8539;DHT22;4307;53.868;11.680;2023-05-10T09:59:51;20.60;70.40
8539;DHT22;4307;53.868;11.680;2023-05-10T10:02:21;20.70;70.10
8539;DHT22;4307;53.868;11.680;2023-05-10T10:04:55;20.70;70.00
8539;DHT22;4307;53.868;11.680;2023-05-10T10:07:23;20.60;69.80
8539;DHT22;4307;53.868;11.680;2023-05-10T10:09:51;20.60;70.00
8539;DHT22;4307;53.868;11.680;2023-05-10T10:12:18;20.60;70.30
8539;DHT22;4307;53.868;11.680;2023-05-10T10:14:46;20.70;70.40
8539;DHT22;4307;53.868;11.680;2023-05-10T10:17:13;20.80;70.80
8539;DHT22;4307;53.868;11.680;2023-05-10T10:19:42;21.00;71.00
8539;DHT22;4307;53.868;11.680;2023-05-10T10:22:09;21.10;71.80
8539;DHT22;4307;53.868;11.680;2023-05-10T10:24:38;21.20;71.00
8539;DHT22;4307;53.868;11.680;2023-05-10T10:27:14;21.30;70.90
8539;DHT22;4307;53.868;11.680;2023-05-10T10:29:49;21.30;70.50
8539;DHT22;4307;53.868;11.680;2023-05-10T10:32:24;21.40;70.60
8539;DHT22;4307;53.868;11.680;2023-05-10T10:34:54;21.40;70.40
8539;DHT22;4307;53.868;11.680;2023-05-10T10:37:21;21.40;69.80
8539;DHT22;4307;53.868;11.680;2023-05-10T10:39:48;21.40;70.00
8539;DHT22;4307;53.868;11.680;2023-05-10T10:42:44;21.30;69.40
8539;DHT22;4307;53.868;11.680;2023-05-10T10:45:12;21.30;69.80
8539;DHT22;4307;53.868;11.680;2023-05-10T10:47:39;21.20;69.40
8539;DHT22;4307;53.868;11.680;2023-05-10T10:50:09;21.20;69.20
8539;DHT22;4307;53.868;11.680;2023-05-10T10:52:38;21.20;69.30
8539;DHT22;4307;53.868;11.680;2023-05-10T10:55:06;21.20;69.90
8539;DHT22;4307;53.868;11.680;2023-05-10T10:57:43;21.20;70.00
8539;DHT22;4307;53.868;11.680;2023-05-10T11:00:27;21.30;69.80
8539;DHT22;4307;53.868;11.680;2023-05-10T11:02:57;21.40;69.50
8539;DHT22;4307;53.868;11.680;2023-05-10T11:05:36;21.40;69.50
8539;DHT22;4307;53.868;11.680;2023-05-10T11:08:08;21.40;69.60
8539;DHT22;4307;53.868;11.680;2023-05-10T11:10:35;21.50;69.50
8539;DHT22;4307;53.868;11.680;2023-05-10T11:13:03;21.40;69.30
8539;DHT22;4307;53.868;11.680;2023-05-10T11:15:31;21.40;69.40
8539;DHT22;4307;53.868;11.680;2023-05-10T11:17:58;21.50;69.80
8539;DHT22;4307;53.868;11.680;2023-05-10T11:20:27;21.60;70.00
8539;DHT22;4307;53.868;11.680;2023-05-10T11:23:11;21.70;70.30
8539;DHT22;4307;53.868;11.680;2023-05-10T11:25:41;21.80;71.00
8539;DHT22;4307;53.868;11.680;2023-05-10T11:28:09;21.80;70.00
8539;DHT22;4307;53.868;11.680;2023-05-10T11:30:38;21.90;70.20
8539;DHT22;4307;53.868;11.680;2023-05-10T11:33:06;22.00;69.70
8539;DHT22;4307;53.868;11.680;2023-05-10T11:35:37;22.10;69.30
8539;DHT22;4307;53.868;11.680;2023-05-10T11:38:06;22.00;69.40
8539;DHT22;4307;53.868;11.680;2023-05-10T11:40:33;22.10;70.00
8539;DHT22;4307;53.868;11.680;2023-05-10T11:43:00;22.10;69.70
8539;DHT22;4307;53.868;11.680;2023-05-10T11:45:27;22.20;69.70
8539;DHT22;4307;53.868;11.680;2023-05-10T11:47:55;22.20;69.80
8539;DHT22;4307;53.868;11.680;2023-05-10T11:50:21;22.20;69.50
8539;DHT22;4307;53.868;11.680;2023-05-10T11:52:50;22.20;69.60
8539;DHT22;4307;53.868;11.680;2023-05-10T11:55:19;22.30;69.60
8539;DHT22;4307;53.868;11.680;2023-05-10T11:57:46;22.40;70.00
8539;DHT22;4307;53.868;11.680;2023-05-10T12:00:13;22.50;69.60
8539;DHT22;4307;53.868;11.680;2023-05-10T12:02:40;22.60;69.60
8539;DHT22;4307;53.868;11.680;2023-05-10T12:05:08;22.80;69.30
8539;DHT22;4307;53.868;11.680;2023-05-10T12:07:35;22.70;68.80
8539;DHT22;4307;53.868;11.680;2023-05-10T12:10:06;22.70;69.20
8539;DHT22;4307;53.868;11.680;2023-05-10T12:12:42;23.10;70.10
8539;DHT22;4307;53.868;11.680;2023-05-10T12:15:12;23.40;69.00
8539;DHT22;4307;53.868;11.680;2023-05-10T12:17:44;23.30;68.40
8539;DHT22;4307;53.868;11.680;2023-05-10T12:20:15;23.30;68.20
8539;DHT22;4307;53.868;11.680;2023-05-10T12:22:44;23.20;68.50
8539;DHT22;4307;53.868;11.680;2023-05-10T12:25:11;23.10;69.10
8539;DHT22;4307;53.868;11.680;2023-05-10T12:27:38;22.90;69.20
8539;DHT22;4307;53.868;11.680;2023-05-10T12:30:07;22.80;69.20
8539;DHT22;4307;53.868;11.680;2023-05-10T12:32:38;22.80;69.60
8539;DHT22;4307;53.868;11.680;2023-05-10T12:35:05;22.90;70.20
8539;DHT22;4307;53.868;11.680;2023-05-10T12:37:32;23.30;69.60
8539;DHT22;4307;53.868;11.680;2023-05-10T12:40:01;23.20;68.80
8539;DHT22;4307;53.868;11.680;2023-05-10T12:42:30;23.10;69.60
8539;DHT22;4307;53.868;11.680;2023-05-10T12:44:57;23.30;69.90
8539;DHT22;4307;53.868;11.680;2023-05-10T12:47:25;23.30;69.80
8539;DHT22;4307;53.868;11.680;2023-05-10T12:49:52;23.20;69.60
8539;DHT22;4307;53.868;11.680;2023-05-10T12:52:18;23.20;69.70
8539;DHT22;4307;53.868;11.680;2023-05-10T12:54:45;23.20;69.80
8539;DHT22;4307;53.868;11.680;2023-05-10T12:57:12;23.10;69.80
8539;DHT22;4307;53.868;11.680;2023-05-10T12:59:39;23.10;70.00
8539;DHT22;4307;53.868;11.680;2023-05-10T13:02:06;23.10;70.90
8539;DHT22;4307;53.868;11.680;2023-05-10T13:04:34;23.10;70.30
8539;DHT22;4307;53.868;11.680;2023-05-10T13:07:02;23.00;70.20
8539;DHT22;4307;53.868;11.680;2023-05-10T13:09:29;22.80;70.40
8539;DHT22;4307;53.868;11.680;2023-05-10T13:11:56;22.70;70.70
8539;DHT22;4307;53.868;11.680;2023-05-10T13:14:23;22.60;71.10
8539;DHT22;4307;53.868;11.680;2023-05-10T13:16:49;22.60;71.50
8539;DHT22;4307;53.868;11.680;2023-05-10T13:19:16;22.70;71.90
8539;DHT22;4307;53.868;11.680;2023-05-10T13:21:44;22.80;72.40
8539;DHT22;4307;53.868;11.680;2023-05-10T13:24:11;22.90;72.50
8539;DHT22;4307;53.868;11.680;2023-05-10T13:26:39;23.00;72.60
8539;DHT22;4307;53.868;11.680;2023-05-10T13:29:06;23.00;72.20
8539;DHT22;4307;53.868;11.680;2023-05-10T13:31:33;22.80;72.10
8539;DHT22;4307;53.868;11.680;2023-05-10T13:33:59;22.70;72.40
8539;DHT22;4307;53.868;11.680;2023-05-10T13:36:26;22.50;72.80
8539;DHT22;4307;53.868;11.680;2023-05-10T13:38:55;22.40;73.30
8539;DHT22;4307;53.868;11.680;2023-05-10T13:41:22;22.30;74.30
8539;DHT22;4307;53.868;11.680;2023-05-10T13:43:49;22.10;73.50
8539;DHT22;4307;53.868;11.680;2023-05-10T13:46:15;22.00;74.10
8539;DHT22;4307;53.868;11.680;2023-05-10T13:48:42;21.90;74.60
8539;DHT22;4307;53.868;11.680;2023-05-10T13:51:09;21.80;74.60
8539;DHT22;4307;53.868;11.680;2023-05-10T13:53:35;21.60;74.90
8539;DHT22;4307;53.868;11.680;2023-05-10T13:56:04;21.50;75.50
8539;DHT22;4307;53.868;11.680;2023-05-10T13:58:31;21.50;75.90
8539;DHT22;4307;53.868;11.680;2023-05-10T14:00:57;21.40;76.00
8539;DHT22;4307;53.868;11.680;2023-05-10T14:03:24;21.30;76.30
8539;DHT22;4307;53.868;11.680;2023-05-10T14:05:51;21.30;76.70
8539;DHT22;4307;53.868;11.680;2023-05-10T14:08:17;21.30;76.80
8539;DHT22;4307;53.868;11.680;2023-05-10T14:10:44;21.20;76.70
8539;DHT22;4307;53.868;11.680;2023-05-10T14:13:12;21.20;77.30
8539;DHT22;4307;53.868;11.680;2023-05-10T14:15:38;21.40;77.60
8539;DHT22;4307;53.868;11.680;2023-05-10T14:18:05;21.40;77.40
8539;DHT22;4307;53.868;11.680;2023-05-10T14:20:32;21.40;77.30
8539;DHT22;4307;53.868;11.680;2023-05-10T14:22:59;21.40;77.60
8539;DHT22;4307;53.868;11.680;2023-05-10T14:25:26;21.40;77.60
8539;DHT22;4307;53.868;11.680;2023-05-10T14:27:53;21.30;77.30
8539;DHT22;4307;53.868;11.680;2023-05-10T14:30:21;21.30;77.50
8539;DHT22;4307;53.868;11.680;2023-05-10T14:32:48;21.30;77.60
8539;DHT22;4307;53.868;11.680;2023-05-10T14:35:14;21.30;77.80
8539;DHT22;4307;53.868;11.680;2023-05-10T14:37:41;21.20;77.80
8539;DHT22;4307;53.868;11.680;2023-05-10T14:40:09;21.20;77.90
8539;DHT22;4307;53.868;11.680;2023-05-10T14:42:35;21.20;78.00
8539;DHT22;4307;53.868;11.680;2023-05-10T14:45:02;21.20;78.20
8539;DHT22;4307;53.868;11.680;2023-05-10T14:47:30;21.20;78.20
8539;DHT22;4307;53.868;11.680;2023-05-10T14:49:57;21.10;77.90
8539;DHT22;4307;53.868;11.680;2023-05-10T14:52:24;20.90;77.90
8539;DHT22;4307;53.868;11.680;2023-05-10T14:54:51;20.80;78.10
8539;DHT22;4307;53.868;11.680;2023-05-10T14:57:17;20.70;78.50
8539;DHT22;4307;53.868;11.680;2023-05-10T14:59:44;20.60;78.70
8539;DHT22;4307;53.868;11.680;2023-05-10T15:02:11;20.50;78.90
8539;DHT22;4307;53.868;11.680;2023-05-10T15:04:40;20.50;79.30
8539;DHT22;4307;53.868;11.680;2023-05-10T15:07:06;20.40;79.70
8539;DHT22;4307;53.868;11.680;2023-05-10T15:09:33;20.40;79.90
8539;DHT22;4307;53.868;11.680;2023-05-10T15:12:00;20.30;79.60
8539;DHT22;4307;53.868;11.680;2023-05-10T15:14:26;20.30;80.00
8539;DHT22;4307;53.868;11.680;2023-05-10T15:16:53;20.30;80.30
8539;DHT22;4307;53.868;11.680;2023-05-10T15:19:20;20.40;80.50
8539;DHT22;4307;53.868;11.680;2023-05-10T15:21:48;20.40;80.40
8539;DHT22;4307;53.868;11.680;2023-05-10T15:24:15;20.30;80.40
8539;DHT22;4307;53.868;11.680;2023-05-10T15:26:41;20.30;80.70
8539;DHT22;4307;53.868;11.680;2023-05-10T15:29:09;20.30;80.80
8539;DHT22;4307;53.868;11.680;2023-05-10T15:31:35;20.40;80.80
8539;DHT22;4307;53.868;11.680;2023-05-10T15:34:02;20.30;80.70
8539;DHT22;4307;53.868;11.680;2023-05-10T15:36:28;20.20;80.90
8539;DHT22;4307;53.868;11.680;2023-05-10T15:38:56;20.20;81.90
8539;DHT22;4307;53.868;11.680;2023-05-10T15:41:23;20.20;81.50
8539;DHT22;4307;53.868;11.680;2023-05-10T15:43:50;20.20;81.70
8539;DHT22;4307;53.868;11.680;2023-05-10T15:46:17;20.10;81.70
8539;DHT22;4307;53.868;11.680;2023-05-10T15:48:43;20.00;81.80
8539;DHT22;4307;53.868;11.680;2023-05-10T15:51:10;20.00;82.10
8539;DHT22;4307;53.868;11.680;2023-05-10T15:53:37;19.90;82.20